createdAt,value
2024-04-25T00:00:15.895Z,21.80
2024-04-25T00:03:04.131Z,21.60
2024-04-25T00:05:32.003Z,23.00
2024-04-25T00:07:59.776Z,23.90
2024-04-25T00:10:27.462Z,21.70
2024-04-25T00:12:55.366Z,22.70
2024-04-25T00:15:25.728Z,21.30
2024-04-25T00:17:54.060Z,20.40
2024-04-25T00:20:22.010Z,21.80
2024-04-25T00:22:50.615Z,23.10
2024-04-25T00:25:18.568Z,21.40
2024-04-25T00:27:48.496Z,21.10
2024-04-25T00:30:16.356Z,22.20
2024-04-25T00:32:44.196Z,21.40
2024-04-25T00:35:12.396Z,22.00
2024-04-25T00:37:40.959Z,22.40
2024-04-25T00:40:09.670Z,21.50
2024-04-25T00:42:37.536Z,22.10
2024-04-25T00:45:05.820Z,21.90
2024-04-25T00:47:34.043Z,21.00
2024-04-25T00:50:02.255Z,20.80
2024-04-25T00:52:30.178Z,21.70
2024-04-25T00:54:58.122Z,21.10
2024-04-25T00:57:27.145Z,20.40
2024-04-25T00:59:57.249Z,20.40
2024-04-25T01:02:25.397Z,21.10
2024-04-25T01:04:56.423Z,20.20
2024-04-25T01:07:24.140Z,20.80
2024-04-25T01:09:51.822Z,20.60
2024-04-25T01:12:19.592Z,21.60
2024-04-25T01:14:47.542Z,21.60
2024-04-25T01:17:15.429Z,20.90
2024-04-25T01:19:44.266Z,21.70
2024-04-25T01:22:13.289Z,21.80
2024-04-25T01:24:41.045Z,21.70
2024-04-25T01:27:09.569Z,20.70
2024-04-25T01:29:38.201Z,21.00
2024-04-25T01:32:09.485Z,21.20
2024-04-25T01:34:37.834Z,20.40
2024-04-25T01:37:08.629Z,20.40
2024-04-25T01:39:38.107Z,20.00
2024-04-25T01:42:06.192Z,21.20
2024-04-25T01:44:34.028Z,20.30
2024-04-25T01:47:02.093Z,21.00
2024-04-25T01:49:29.836Z,21.80
2024-04-25T01:51:57.817Z,19.70
2024-04-25T01:54:25.547Z,22.40
2024-04-25T01:56:53.423Z,21.80
2024-04-25T01:59:21.216Z,20.80
2024-04-25T02:01:49.277Z,20.90
2024-04-25T02:04:17.291Z,21.20
2024-04-25T02:06:45.079Z,21.20
2024-04-25T02:09:12.942Z,21.50
2024-04-25T02:11:41.073Z,21.10
2024-04-25T02:14:09.058Z,22.30
2024-04-25T02:16:36.926Z,23.90
2024-04-25T02:19:04.962Z,25.00
2024-04-25T02:21:51.182Z,25.20
2024-04-25T02:24:37.174Z,25.00
2024-04-25T02:27:04.925Z,24.60
2024-04-25T02:29:32.763Z,24.90
2024-04-25T02:32:00.612Z,26.00
2024-04-25T02:34:28.552Z,27.00
2024-04-25T02:36:56.324Z,25.20
2024-04-25T02:39:24.056Z,24.50
2024-04-25T02:41:52.493Z,23.40
2024-04-25T02:44:20.477Z,24.20
2024-04-25T02:46:48.301Z,22.60
2024-04-25T02:49:16.172Z,22.00
2024-04-25T02:51:43.971Z,23.10
2024-04-25T02:54:11.726Z,20.80
2024-04-25T02:56:42.312Z,21.40
2024-04-25T02:59:10.232Z,23.20
2024-04-25T03:01:38.940Z,21.20
2024-04-25T03:04:10.299Z,21.00
2024-04-25T03:06:39.782Z,21.00
2024-04-25T03:09:10.124Z,21.40
2024-04-25T03:11:38.186Z,20.20
2024-04-25T03:14:05.926Z,21.50
2024-04-25T03:16:34.000Z,21.30
2024-04-25T03:19:01.846Z,20.70
2024-04-25T03:21:29.737Z,21.60
2024-04-25T03:23:57.830Z,21.60
2024-04-25T03:26:25.979Z,20.40
2024-04-25T03:28:54.020Z,21.10
2024-04-25T03:31:21.902Z,23.00
2024-04-25T03:33:49.772Z,22.50
2024-04-25T03:36:17.538Z,20.20
2024-04-25T03:38:45.535Z,20.50
2024-04-25T03:41:18.677Z,20.70
2024-04-25T03:43:47.110Z,21.90
2024-04-25T03:46:15.238Z,20.50
2024-04-25T03:48:43.478Z,20.00
2024-04-25T03:51:12.131Z,20.00
2024-04-25T03:53:39.809Z,19.70
2024-04-25T03:56:07.587Z,20.00
2024-04-25T03:58:41.475Z,19.60
2024-04-25T04:01:09.341Z,20.20
2024-04-25T04:03:37.464Z,18.50
2024-04-25T04:06:05.617Z,21.20
2024-04-25T04:08:33.406Z,19.70
2024-04-25T04:11:01.238Z,19.50
2024-04-25T04:13:29.067Z,17.70
2024-04-25T04:15:56.842Z,18.60
2024-04-25T04:18:27.645Z,18.90
2024-04-25T04:20:58.064Z,18.60
2024-04-25T04:23:26.078Z,18.60
2024-04-25T04:25:53.832Z,19.90
2024-04-25T04:28:21.731Z,20.90
2024-04-25T04:30:49.578Z,18.90
2024-04-25T04:33:17.489Z,18.20
2024-04-25T04:35:45.413Z,17.30
2024-04-25T04:38:14.333Z,19.00
2024-04-25T04:40:42.184Z,18.20
2024-04-25T04:43:10.031Z,18.80
2024-04-25T04:45:41.047Z,19.60
2024-04-25T04:48:15.793Z,20.30
2024-04-25T04:50:47.489Z,19.30
2024-04-25T04:53:15.578Z,18.50
2024-04-25T04:55:43.757Z,19.80
2024-04-25T04:58:11.541Z,18.50
2024-04-25T05:00:39.260Z,19.20
2024-04-25T05:03:09.301Z,18.00
2024-04-25T05:05:37.302Z,18.50
2024-04-25T05:08:08.558Z,17.90
2024-04-25T05:10:36.630Z,19.50
2024-04-25T05:13:05.276Z,18.50
2024-04-25T05:15:33.176Z,18.80
2024-04-25T05:18:01.528Z,18.20
2024-04-25T05:20:29.418Z,17.90
2024-04-25T05:22:58.123Z,18.40
2024-04-25T05:25:26.057Z,17.90
2024-04-25T05:27:55.245Z,17.70
2024-04-25T05:30:24.222Z,18.00
2024-04-25T05:32:52.206Z,19.10
2024-04-25T05:35:20.953Z,16.60
2024-04-25T05:37:48.580Z,15.20
2024-04-25T05:40:16.686Z,15.90
2024-04-25T05:42:46.702Z,16.80
2024-04-25T05:45:14.491Z,16.10
2024-04-25T05:47:42.864Z,16.70
2024-04-25T05:50:10.720Z,18.30
2024-04-25T05:52:41.271Z,17.10
2024-04-25T05:55:09.011Z,17.70
2024-04-25T05:57:39.939Z,17.00
2024-04-25T06:00:08.354Z,16.30
2024-04-25T06:02:36.163Z,16.30
2024-04-25T06:05:05.397Z,15.80
2024-04-25T06:07:33.144Z,14.70
2024-04-25T06:10:00.980Z,16.00
2024-04-25T06:12:30.369Z,16.30
2024-04-25T06:14:58.418Z,16.20
2024-04-25T06:17:26.238Z,14.30
2024-04-25T06:19:54.196Z,15.40
2024-04-25T06:22:23.584Z,14.90
2024-04-25T06:24:51.236Z,14.70
2024-04-25T06:27:19.018Z,14.50
2024-04-25T06:29:46.977Z,13.90
2024-04-25T06:32:14.986Z,16.40
2024-04-25T06:34:42.792Z,14.10
2024-04-25T06:37:11.342Z,14.30
2024-04-25T06:39:39.604Z,13.20
2024-04-25T06:42:07.317Z,13.30
2024-04-25T06:44:40.625Z,12.00
2024-04-25T06:47:17.338Z,11.40
2024-04-25T06:49:45.522Z,12.70
2024-04-25T06:52:13.399Z,11.90
2024-04-25T06:54:41.146Z,12.30
2024-04-25T06:57:09.074Z,8.80
2024-04-25T06:59:36.954Z,11.10
2024-04-25T07:02:05.818Z,10.80
2024-04-25T07:04:33.678Z,9.60
2024-04-25T07:07:01.432Z,9.60
2024-04-25T07:09:29.299Z,9.60
2024-04-25T07:11:57.058Z,8.10
2024-04-25T07:14:24.893Z,7.00
2024-04-25T07:16:52.841Z,8.80
2024-04-25T07:19:20.565Z,9.00
2024-04-25T07:21:48.432Z,9.70
2024-04-25T07:24:16.294Z,9.40
2024-04-25T07:26:44.418Z,9.70
2024-04-25T07:29:13.703Z,8.80
2024-04-25T07:31:41.386Z,9.00
2024-04-25T07:34:09.234Z,8.10
2024-04-25T07:36:37.271Z,8.80
2024-04-25T07:39:05.826Z,10.00
2024-04-25T07:41:33.878Z,8.10
2024-04-25T07:44:02.114Z,9.40
2024-04-25T07:46:30.400Z,10.40
2024-04-25T07:48:58.155Z,9.50
2024-04-25T07:51:26.633Z,9.60
2024-04-25T07:53:54.287Z,10.10
2024-04-25T07:56:22.170Z,9.50
2024-04-25T07:58:49.942Z,10.60
2024-04-25T08:01:17.697Z,9.30
2024-04-25T08:03:45.874Z,9.70
2024-04-25T08:06:13.799Z,9.80
2024-04-25T08:08:41.811Z,9.40
2024-04-25T08:11:09.668Z,9.70
2024-04-25T08:13:37.435Z,10.10
2024-04-25T08:16:06.127Z,7.40
2024-04-25T08:18:34.059Z,6.90
2024-04-25T08:21:01.988Z,6.70
2024-04-25T08:23:29.876Z,6.30
2024-04-25T08:25:57.689Z,7.50
2024-04-25T08:28:25.552Z,7.00
2024-04-25T08:30:53.237Z,6.50
2024-04-25T08:33:21.157Z,6.30
2024-04-25T08:35:49.147Z,4.90
2024-04-25T08:38:17.034Z,4.50
2024-04-25T08:40:48.889Z,4.80
2024-04-25T08:43:17.199Z,4.80
2024-04-25T08:45:45.149Z,5.00
2024-04-25T08:48:14.491Z,4.90
2024-04-25T08:50:42.404Z,5.40
2024-04-25T08:53:11.162Z,5.50
2024-04-25T08:55:39.207Z,5.50
2024-04-25T08:58:07.076Z,4.30
2024-04-25T09:00:35.240Z,4.40
2024-04-25T09:03:08.202Z,3.80
2024-04-25T09:05:36.437Z,3.40
2024-04-25T09:08:04.500Z,3.60
2024-04-25T09:10:40.508Z,3.40
2024-04-25T09:13:08.369Z,3.10
2024-04-25T09:15:36.304Z,3.40
2024-04-25T09:18:04.446Z,2.80
2024-04-25T09:20:32.718Z,2.50
2024-04-25T09:23:04.460Z,3.00
2024-04-25T09:25:34.370Z,2.40
2024-04-25T09:28:03.663Z,2.10
2024-04-25T09:30:33.733Z,2.30
2024-04-25T09:33:06.104Z,2.00
2024-04-25T09:35:46.315Z,1.90
2024-04-25T09:38:15.488Z,2.60
2024-04-25T09:40:50.824Z,2.10
2024-04-25T09:43:20.519Z,3.30
2024-04-25T09:45:50.108Z,2.70
2024-04-25T09:48:18.349Z,2.90
2024-04-25T09:50:50.916Z,2.90
2024-04-25T09:53:38.482Z,3.30
2024-04-25T09:56:07.979Z,3.20
2024-04-25T09:58:50.331Z,3.20
2024-04-25T10:01:18.900Z,3.60
2024-04-25T10:03:47.556Z,3.30
2024-04-25T10:06:15.783Z,3.40
2024-04-25T10:08:44.258Z,2.90
2024-04-25T10:11:15.586Z,3.80
2024-04-25T10:13:50.786Z,3.30
2024-04-25T10:16:19.966Z,3.50
2024-04-25T10:18:51.693Z,2.90
2024-04-25T10:21:20.815Z,2.10
2024-04-25T10:23:51.759Z,2.30
2024-04-25T10:26:21.502Z,2.30
2024-04-25T10:29:05.102Z,2.10
2024-04-25T10:31:38.115Z,2.40
2024-04-25T10:34:09.028Z,2.30
2024-04-25T10:36:38.380Z,2.20
2024-04-25T10:39:09.056Z,2.70
2024-04-25T10:41:39.885Z,3.00
2024-04-25T10:44:09.415Z,3.30
2024-04-25T10:46:38.307Z,3.50
2024-04-25T10:49:07.057Z,3.40
2024-04-25T10:51:38.626Z,4.00
2024-04-25T10:54:07.470Z,3.20
2024-04-25T10:56:36.374Z,2.90
2024-04-25T10:59:04.379Z,2.90
2024-04-25T11:01:32.740Z,3.40
2024-04-25T11:04:03.576Z,3.00
2024-04-25T11:06:32.696Z,3.50
2024-04-25T11:09:00.962Z,3.10
2024-04-25T11:11:29.147Z,3.90
2024-04-25T11:13:57.088Z,3.30
2024-04-25T11:16:45.209Z,3.10
2024-04-25T11:19:15.777Z,3.30
2024-04-25T11:21:46.618Z,2.70
2024-04-25T11:24:18.701Z,3.50
2024-04-25T11:29:15.302Z,4.00
2024-04-25T11:31:44.325Z,2.80
2024-04-25T11:34:27.140Z,2.80
2024-04-25T11:37:06.562Z,2.70
2024-04-25T11:39:37.564Z,2.30
2024-04-25T11:42:08.121Z,2.60
2024-04-25T11:44:36.098Z,2.10
2024-04-25T11:47:03.890Z,2.00
2024-04-25T11:49:31.914Z,1.90
2024-04-25T11:51:59.608Z,1.90
2024-04-25T11:54:28.110Z,2.20
2024-04-25T11:56:56.119Z,2.30
2024-04-25T11:59:23.943Z,2.30
2024-04-25T12:01:54.418Z,2.10
2024-04-25T12:04:22.867Z,2.70
2024-04-25T12:06:50.934Z,2.10
2024-04-25T12:09:22.091Z,1.90
2024-04-25T12:11:55.970Z,2.70
2024-04-25T12:14:25.931Z,2.00
2024-04-25T12:16:54.794Z,1.90
2024-04-25T12:19:23.786Z,2.30
2024-04-25T12:21:51.603Z,2.20
2024-04-25T12:24:19.341Z,1.60
2024-04-25T12:26:47.138Z,1.80
2024-04-25T12:29:15.545Z,1.50
2024-04-25T12:31:43.938Z,1.40
2024-04-25T12:34:14.266Z,1.80
2024-04-25T12:36:44.499Z,1.40
2024-04-25T12:39:12.248Z,1.50
2024-04-25T12:41:40.069Z,1.00
2024-04-25T12:44:08.295Z,1.30
2024-04-25T12:46:36.101Z,1.70
2024-04-25T12:49:04.012Z,1.40
2024-04-25T12:51:31.787Z,1.10
2024-04-25T12:53:59.515Z,0.80
2024-04-25T12:56:27.722Z,0.80
2024-04-25T12:58:55.571Z,0.80
2024-04-25T13:01:23.446Z,0.90
2024-04-25T13:03:52.673Z,1.00
2024-04-25T13:06:20.500Z,1.10
2024-04-25T13:08:48.336Z,1.60
2024-04-25T13:11:16.376Z,3.10
2024-04-25T13:13:44.420Z,2.30
2024-04-25T13:16:12.222Z,2.90
2024-04-25T13:18:40.133Z,2.90
2024-04-25T13:30:25.327Z,2.50
2024-04-25T13:32:53.428Z,2.50
2024-04-25T13:35:21.318Z,2.30
2024-04-25T13:37:49.147Z,1.90
2024-04-25T13:40:17.050Z,2.10
2024-04-25T13:42:46.032Z,1.90
2024-04-25T13:45:13.866Z,1.70
2024-04-25T13:47:41.682Z,1.60
2024-04-25T14:02:51.299Z,0.80
2024-04-25T14:05:19.366Z,0.80
2024-04-25T14:07:50.793Z,0.80
2024-04-25T14:37:34.361Z,0.80
2024-04-25T14:40:02.376Z,1.00
2024-04-25T14:42:30.152Z,1.40
2024-04-25T14:44:57.921Z,1.20
2024-04-25T14:47:25.740Z,1.30
2024-04-25T14:49:53.732Z,1.50
2024-04-25T14:52:21.711Z,1.10
2024-04-25T14:54:49.394Z,1.20
2024-04-25T14:57:17.264Z,1.10
2024-04-25T14:59:46.617Z,1.40
2024-04-25T15:02:15.357Z,1.30
2024-04-25T15:04:43.124Z,1.30
2024-04-25T15:07:10.797Z,1.10
2024-04-25T15:09:38.530Z,1.20
2024-04-25T15:12:06.962Z,1.50
2024-04-25T15:14:36.377Z,1.40
2024-04-25T15:17:05.855Z,1.50
2024-04-25T15:19:45.381Z,1.60
2024-04-25T15:22:13.426Z,1.20
2024-04-25T15:24:41.828Z,1.60
2024-04-25T15:27:16.762Z,1.40
2024-04-25T15:29:45.669Z,1.30
2024-04-25T15:32:13.776Z,1.50
2024-04-25T15:34:41.591Z,1.50
2024-04-25T15:37:09.282Z,1.70
2024-04-25T15:39:36.986Z,1.50
2024-04-25T15:42:04.924Z,1.30
2024-04-25T15:44:32.729Z,1.40
2024-04-25T15:47:02.734Z,1.70
2024-04-25T15:49:30.845Z,1.30
2024-04-25T15:51:58.639Z,1.40
2024-04-25T15:54:26.631Z,1.20
2024-04-25T15:56:54.514Z,1.40
2024-04-25T15:59:23.688Z,1.30
2024-04-25T16:01:52.072Z,1.40
2024-04-25T16:04:19.725Z,1.10
2024-04-25T16:06:56.649Z,1.40
2024-04-25T16:09:26.558Z,1.30
2024-04-25T16:11:58.055Z,1.50
2024-04-25T16:14:26.100Z,1.30
2024-04-25T16:16:53.974Z,1.40
2024-04-25T16:19:25.799Z,1.50
2024-04-25T16:21:54.584Z,1.30
2024-04-25T16:24:22.570Z,1.30
2024-04-25T16:26:50.541Z,1.40
2024-04-25T16:29:20.065Z,1.10
2024-04-25T16:31:48.990Z,1.20
2024-04-25T16:34:16.763Z,1.40
2024-04-25T16:36:45.210Z,1.50
2024-04-25T16:39:13.074Z,1.60
2024-04-25T16:41:40.757Z,1.30
2024-04-25T16:44:08.516Z,1.40
2024-04-25T16:46:37.810Z,1.40
2024-04-25T16:49:05.561Z,1.70
2024-04-25T16:51:33.545Z,1.40
2024-04-25T16:54:01.201Z,1.70
2024-04-25T16:56:33.561Z,1.50
2024-04-25T16:59:01.780Z,1.60
2024-04-25T17:01:30.179Z,1.30
2024-04-25T17:03:58.503Z,1.20
2024-04-25T17:06:26.527Z,1.50
2024-04-25T17:08:54.810Z,1.00
2024-04-25T17:11:27.597Z,1.70
2024-04-25T17:13:59.080Z,1.40
2024-04-25T17:16:27.904Z,1.30
2024-04-25T17:18:58.670Z,1.60
2024-04-25T17:21:26.624Z,1.40
2024-04-25T17:23:57.223Z,1.50
2024-04-25T17:26:25.610Z,1.80
2024-04-25T17:28:54.374Z,1.10
2024-04-25T17:31:22.656Z,1.40
2024-04-25T17:33:51.079Z,1.30
2024-04-25T17:36:19.514Z,0.90
2024-04-25T17:38:47.458Z,1.10
2024-04-25T17:41:15.561Z,1.20
2024-04-25T17:43:43.312Z,1.20
2024-04-25T17:46:11.212Z,1.10
2024-04-25T17:48:39.411Z,1.00
2024-04-25T17:51:07.448Z,1.60
2024-04-25T17:53:37.273Z,1.20
2024-04-25T17:56:05.280Z,1.60
2024-04-25T17:58:35.715Z,1.40
2024-04-25T18:01:03.617Z,1.80
2024-04-25T18:03:31.560Z,1.60
2024-04-25T18:05:59.710Z,1.50
2024-04-25T18:08:27.665Z,1.90
2024-04-25T18:10:57.754Z,2.40
2024-04-25T18:13:25.731Z,2.80
2024-04-25T18:15:53.421Z,3.50
2024-04-25T18:18:22.297Z,3.60
2024-04-25T18:20:50.489Z,4.70
2024-04-25T18:23:18.395Z,4.70
2024-04-25T18:25:46.531Z,5.00
2024-04-25T18:28:17.172Z,5.00
2024-04-25T18:30:44.862Z,4.80
2024-04-25T18:33:12.776Z,5.80
2024-04-25T18:35:41.014Z,6.20
2024-04-25T18:38:09.213Z,5.20
2024-04-25T18:40:37.019Z,5.40
2024-04-25T18:43:05.374Z,5.10
2024-04-25T18:45:33.342Z,3.80
2024-04-25T18:48:01.127Z,3.80
2024-04-25T18:50:29.189Z,4.10
2024-04-25T18:52:56.953Z,3.80
2024-04-25T18:55:24.630Z,3.60
2024-04-25T18:57:52.307Z,4.40
2024-04-25T19:00:20.022Z,4.80
2024-04-25T19:02:47.760Z,5.10
2024-04-25T19:05:16.123Z,5.30
2024-04-25T19:07:44.606Z,5.90
2024-04-25T19:10:12.441Z,5.30
2024-04-25T19:12:42.164Z,6.50
2024-04-25T19:15:10.420Z,6.10
2024-04-25T19:17:38.129Z,6.80
2024-04-25T19:20:06.729Z,7.00
2024-04-25T19:22:34.528Z,6.10
2024-04-25T19:25:02.234Z,5.90
2024-04-25T19:27:30.132Z,5.30
2024-04-25T19:29:57.935Z,5.50
2024-04-25T19:32:26.384Z,5.30
2024-04-25T19:34:55.710Z,5.50
2024-04-25T19:37:23.498Z,5.30
2024-04-25T19:39:53.492Z,5.80
2024-04-25T19:42:22.190Z,5.30
2024-04-25T19:44:49.997Z,5.20
2024-04-25T19:47:18.041Z,4.60
2024-04-25T19:49:45.914Z,4.90
2024-04-25T19:52:14.172Z,4.70
2024-04-25T19:54:41.894Z,4.90
2024-04-25T19:57:09.812Z,5.30
2024-04-25T19:59:42.151Z,7.00
2024-04-25T20:02:10.278Z,9.60
2024-04-25T20:04:38.565Z,8.50
2024-04-25T20:07:06.529Z,9.40
2024-04-25T20:09:34.684Z,9.70
2024-04-25T20:12:05.376Z,8.20
2024-04-25T20:14:33.551Z,8.80
2024-04-25T20:17:10.920Z,8.10
2024-04-25T20:19:57.242Z,8.30
2024-04-25T20:22:25.350Z,7.40
2024-04-25T20:24:54.549Z,7.10
2024-04-25T20:27:22.365Z,7.80
2024-04-25T20:29:50.490Z,7.90
2024-04-25T20:32:18.385Z,7.60
2024-04-25T20:34:46.349Z,6.80
2024-04-25T20:37:14.267Z,7.30
2024-04-25T20:39:42.074Z,6.20
2024-04-25T20:42:10.218Z,6.50
2024-04-25T20:44:38.096Z,6.10
2024-04-25T20:47:07.355Z,6.20
2024-04-25T20:49:35.407Z,6.40
2024-04-25T20:52:03.304Z,6.00
2024-04-25T20:54:31.081Z,6.70
2024-04-25T20:56:59.265Z,6.20
2024-04-25T20:59:27.089Z,6.80
2024-04-25T21:01:55.095Z,6.80
2024-04-25T21:04:23.041Z,6.60
2024-04-25T21:06:51.267Z,6.90
2024-04-25T21:09:19.244Z,6.50
2024-04-25T21:11:47.600Z,6.70
2024-04-25T21:14:16.053Z,7.60
2024-04-25T21:16:44.240Z,7.40
2024-04-25T21:19:12.807Z,7.60
2024-04-25T21:21:45.301Z,7.60
2024-04-25T21:24:14.192Z,7.50
2024-04-25T21:26:48.517Z,6.20
2024-04-25T21:29:16.835Z,7.70
2024-04-25T21:31:45.230Z,6.90
2024-04-25T21:34:13.156Z,7.30
2024-04-25T21:36:40.956Z,7.50
2024-04-25T21:39:08.791Z,6.40
2024-04-25T21:41:41.321Z,7.20
2024-04-25T21:44:10.078Z,7.30
2024-04-25T21:46:38.851Z,7.70
2024-04-25T21:49:08.055Z,7.30
2024-04-25T21:51:42.254Z,7.60
2024-04-25T21:54:10.481Z,8.30
2024-04-25T21:56:38.445Z,7.60
2024-04-25T21:59:06.258Z,7.90
2024-04-25T22:01:34.185Z,8.60
2024-04-25T22:04:02.141Z,7.50
2024-04-25T22:06:30.035Z,7.50
2024-04-25T22:08:57.783Z,7.50
2024-04-25T22:11:25.873Z,7.50
2024-04-25T22:13:54.973Z,7.10
2024-04-25T22:16:22.938Z,8.10
2024-04-25T22:18:51.613Z,7.40
2024-04-25T22:21:20.931Z,7.70
2024-04-25T22:23:49.420Z,7.40
2024-04-25T22:26:17.125Z,7.70
2024-04-25T22:28:44.881Z,7.60
2024-04-25T22:31:12.650Z,7.20
2024-04-25T22:33:40.447Z,7.30
2024-04-25T22:36:09.814Z,7.90
2024-04-25T22:38:37.771Z,9.10
2024-04-25T22:41:05.542Z,9.30
2024-04-25T22:43:33.602Z,9.20
2024-04-25T22:46:01.356Z,9.00
2024-04-25T22:48:29.190Z,8.80
2024-04-25T22:50:57.147Z,9.30
2024-04-25T22:53:25.058Z,8.60
2024-04-25T22:55:52.860Z,9.00
2024-04-25T22:58:20.525Z,9.00
2024-04-25T23:00:48.266Z,11.70
2024-04-25T23:03:15.941Z,8.80
2024-04-25T23:05:43.752Z,8.50
2024-04-25T23:08:11.457Z,8.50
2024-04-25T23:10:39.210Z,8.60
2024-04-25T23:13:06.894Z,8.70
2024-04-25T23:15:35.139Z,9.60
2024-04-25T23:18:03.139Z,9.30
2024-04-25T23:20:30.920Z,10.20
2024-04-25T23:22:59.610Z,11.80
2024-04-25T23:25:27.343Z,11.10
2024-04-25T23:27:55.137Z,12.40
2024-04-25T23:30:23.045Z,10.90
2024-04-25T23:32:51.416Z,9.90
2024-04-25T23:35:19.397Z,12.40
2024-04-25T23:37:47.045Z,14.40
2024-04-25T23:40:14.761Z,13.00
2024-04-25T23:42:42.534Z,12.00
2024-04-25T23:45:10.381Z,11.50
2024-04-25T23:47:38.576Z,12.10
2024-04-25T23:50:07.103Z,11.60
2024-04-25T23:52:34.891Z,11.30
2024-04-25T23:55:02.710Z,11.20
2024-04-25T23:57:32.486Z,11.80
